Time;durP1;ratioP1;P1;durP2;ratioP2;P2;SDS_P1;SDS_P2;PMS_P1;PMS_P2;Temp;Humidity;BMP_temperature;BMP_pressure;BME280_temperature;BME280_humidity;BME280_pressure;Samples;Min_cycle;Max_cycle;Signal;HPM_P1;HPM_P2
2023/03/21 00:00:59;;;;;;;;;;;;;;;8.86;63.99;93320.16;5049516;28;19925;-37
2023/03/21 00:03:24;;;;;;;;;;;;;;;8.94;62.62;93307.91;5049839;28;19919;-37
2023/03/21 00:05:52;;;;;;;;;;;;;;;8.99;62.30;93311.78;5049819;28;20315;-37
2023/03/21 00:08:17;;;;;;;;;;;;;;;9.06;61.99;93306.34;5049871;28;20339;-37
2023/03/21 00:10:43;;;;;;;;;;;;;;;8.88;64.33;93293.56;5049797;28;19913;-37
2023/03/21 00:13:11;;;;;;;;;;;;;;;8.70;65.89;93291.06;5049359;28;20411;-37
2023/03/21 00:15:49;;;;;;;;;;;;;;;8.75;65.57;93293.66;5049314;28;19921;-37
2023/03/21 00:18:17;;;;;;;;;;;;;;;8.72;64.81;93294.03;5049507;28;19975;-37
2023/03/21 00:20:45;;;;;;;;;;;;;;;8.72;64.71;93292.00;5049563;28;19921;-37
2023/03/21 00:23:10;;;;;;;;;;;;;;;8.91;63.43;93283.50;5047735;28;19967;-37
2023/03/21 00:25:35;;;;;;;;;;;;;;;8.95;63.56;93281.13;5029605;28;19921;-37
2023/03/21 00:28:01;;;;;;;;;;;;;;;8.74;62.81;93275.69;5029259;28;20394;-37
2023/03/21 00:30:26;;;;;;;;;;;;;;;8.90;63.02;93273.78;5029303;28;20012;-37
2023/03/21 00:32:51;;;;;;;;;;;;;;;8.96;62.11;93269.59;5029788;28;19917;-37
2023/03/21 00:35:17;;;;;;;;;;;;;;;9.10;62.17;93270.94;5049342;28;19978;-37
2023/03/21 00:37:42;;;;;;;;;;;;;;;8.89;64.58;93267.53;5049380;28;19920;-37
2023/03/21 00:40:09;;;;;;;;;;;;;;;8.95;65.44;93261.84;5048870;28;19944;-37
2023/03/21 00:42:34;;;;;;;;;;;;;;;8.96;65.41;93261.31;5049059;28;19913;-37
2023/03/21 00:45:00;;;;;;;;;;;;;;;8.85;65.94;93269.88;5049188;28;19913;-37
2023/03/21 00:47:26;;;;;;;;;;;;;;;8.87;65.22;93283.09;5049119;28;20374;-37
2023/03/21 00:49:51;;;;;;;;;;;;;;;8.69;65.76;93276.56;5049131;28;19962;-37
2023/03/21 00:52:16;;;;;;;;;;;;;;;8.91;64.77;93262.22;5039503;28;19921;-37
2023/03/21 00:54:42;;;;;;;;;;;;;;;8.63;65.62;93259.47;5029250;28;19921;-37
2023/03/21 00:57:07;;;;;;;;;;;;;;;8.53;65.77;93260.50;5029261;28;19923;-37
2023/03/21 00:59:32;;;;;;;;;;;;;;;8.51;66.79;93258.28;5028906;28;20425;-37
2023/03/21 01:01:59;;;;;;;;;;;;;;;8.54;67.22;93253.72;5030037;28;19913;-37
2023/03/21 01:04:25;;;;;;;;;;;;;;;8.61;66.98;93255.78;5033504;28;19913;-37
2023/03/21 01:06:51;;;;;;;;;;;;;;;8.55;66.86;93238.69;5033177;28;20356;-37
2023/03/21 01:09:17;;;;;;;;;;;;;;;8.58;66.22;93252.09;5033031;28;19917;-37
2023/03/21 01:11:42;;;;;;;;;;;;;;;8.73;66.17;93252.19;5033062;28;19917;-37
2023/03/21 01:14:08;;;;;;;;;;;;;;;8.73;64.50;93251.44;5032925;28;19924;-37
2023/03/21 01:16:33;;;;;;;;;;;;;;;8.63;65.48;93250.47;5033397;28;19952;-37
2023/03/21 01:18:59;;;;;;;;;;;;;;;8.53;66.15;93244.75;5033111;28;19920;-37
2023/03/21 01:21:24;;;;;;;;;;;;;;;8.36;67.78;93245.16;5032868;28;20348;-37
2023/03/21 01:23:50;;;;;;;;;;;;;;;8.45;67.77;93243.94;5032810;28;19952;-37
2023/03/21 01:26:15;;;;;;;;;;;;;;;8.36;68.18;93247.91;5032750;28;20000;-37
2023/03/21 01:28:41;;;;;;;;;;;;;;;8.32;67.76;93250.25;5032995;28;19920;-37
2023/03/21 01:31:06;;;;;;;;;;;;;;;8.20;68.54;93246.31;5032320;28;20086;-37
2023/03/21 01:33:32;;;;;;;;;;;;;;;7.97;70.21;93244.63;5039352;28;19919;-37
2023/03/21 01:35:59;;;;;;;;;;;;;;;8.07;69.09;93240.13;5052566;28;19944;-37
2023/03/21 01:38:25;;;;;;;;;;;;;;;7.95;69.13;93249.94;5052945;28;19956;-37
2023/03/21 01:41:05;;;;;;;;;;;;;;;8.04;68.58;93246.69;5052398;28;20405;-37
2023/03/21 01:43:32;;;;;;;;;;;;;;;8.15;69.05;93238.19;5052632;28;19960;-37
2023/03/21 01:46:20;;;;;;;;;;;;;;;7.95;69.46;93245.16;5052677;28;20007;-37
2023/03/21 01:48:45;;;;;;;;;;;;;;;7.83;70.96;93249.47;5041724;28;20327;-37
2023/03/21 01:51:10;;;;;;;;;;;;;;;7.80;70.47;93247.03;5047937;28;20008;-37
2023/03/21 01:53:36;;;;;;;;;;;;;;;7.99;69.38;93247.59;5032305;28;20351;-37
2023/03/21 01:56:03;;;;;;;;;;;;;;;7.94;69.33;93248.44;5032074;28;19960;-37
2023/03/21 01:58:28;;;;;;;;;;;;;;;7.82;70.23;93255.50;5047773;28;19956;-37
2023/03/21 02:00:55;;;;;;;;;;;;;;;7.83;70.49;93245.97;5031872;28;20079;-37
2023/03/21 02:03:21;;;;;;;;;;;;;;;7.78;70.42;93255.06;5047643;28;19920;-37
2023/03/21 02:05:57;;;;;;;;;;;;;;;7.51;71.69;93257.19;5047434;28;20401;-37
2023/03/21 02:08:22;;;;;;;;;;;;;;;7.45;72.02;93249.06;5047329;28;19913;-37
2023/03/21 02:10:48;;;;;;;;;;;;;;;7.22;72.27;93250.09;5032112;28;20011;-37
2023/03/21 02:13:14;;;;;;;;;;;;;;;7.12;72.82;93249.81;5031661;28;20363;-37
2023/03/21 02:15:46;;;;;;;;;;;;;;;7.07;72.87;93258.13;5032283;28;19917;-38
2023/03/21 02:18:20;;;;;;;;;;;;;;;7.32;71.54;93253.88;5031886;28;20428;-39
2023/03/21 02:21:21;;;;;;;;;;;;;;;7.28;71.15;93259.69;5032033;28;19913;-39
2023/03/21 02:23:58;;;;;;;;;;;;;;;7.22;71.78;93264.56;5009474;28;19917;-38
2023/03/21 02:26:35;;;;;;;;;;;;;;;7.05;72.81;93261.44;5028593;28;19924;-39
2023/03/21 02:29:01;;;;;;;;;;;;;;;6.87;72.95;93254.03;5047272;28;19913;-38
2023/03/21 02:31:55;;;;;;;;;;;;;;;6.94;73.52;93253.41;5031456;28;20404;-38
2023/03/21 02:34:40;;;;;;;;;;;;;;;6.77;74.04;93259.25;5039356;28;20349;-38
2023/03/21 02:37:10;;;;;;;;;;;;;;;6.89;74.58;93259.75;5051601;28;19924;-39
2023/03/21 02:39:45;;;;;;;;;;;;;;;6.52;75.09;93255.22;5051408;28;19913;-38
2023/03/21 02:42:13;;;;;;;;;;;;;;;6.64;75.58;93256.50;5066656;28;19942;-38
2023/03/21 02:44:38;;;;;;;;;;;;;;;6.77;75.22;93247.53;5043890;28;20011;-38
2023/03/21 02:47:03;;;;;;;;;;;;;;;6.70;74.79;93243.41;5031592;28;19996;-39
2023/03/21 02:49:30;;;;;;;;;;;;;;;6.62;75.25;93248.06;5031279;28;19920;-38
2023/03/21 02:51:56;;;;;;;;;;;;;;;6.80;74.52;93235.47;5031498;28;19936;-39
2023/03/21 02:54:22;;;;;;;;;;;;;;;6.63;74.92;93241.28;5046608;28;20389;-38
2023/03/21 02:56:47;;;;;;;;;;;;;;;6.81;73.68;93228.72;5046512;28;19920;-39
2023/03/21 02:59:13;;;;;;;;;;;;;;;6.84;73.27;93231.16;5046621;28;19920;-38
2023/03/21 03:01:39;;;;;;;;;;;;;;;6.72;74.85;93229.16;5046505;28;19929;-38
2023/03/21 03:04:16;;;;;;;;;;;;;;;6.63;75.03;93230.31;5031102;28;20378;-39
2023/03/21 03:07:00;;;;;;;;;;;;;;;6.59;75.16;93229.16;5031087;28;19913;-38
2023/03/21 03:09:31;;;;;;;;;;;;;;;6.37;75.47;93219.34;5031335;28;20164;-38
2023/03/21 03:12:00;;;;;;;;;;;;;;;6.16;76.07;93224.00;5046451;28;19957;-38
2023/03/21 03:14:28;;;;;;;;;;;;;;;6.08;76.51;93221.16;5046316;28;19978;-38
2023/03/21 03:17:03;;;;;;;;;;;;;;;6.30;75.88;93219.25;5030954;28;19967;-38
2023/03/21 03:19:29;;;;;;;;;;;;;;;6.16;76.58;93226.72;5031012;28;19964;-38
2023/03/21 03:21:55;;;;;;;;;;;;;;;6.13;76.44;93220.28;5046084;28;19967;-38
2023/03/21 03:24:23;;;;;;;;;;;;;;;5.99;77.46;93218.06;5030328;28;19913;-38
2023/03/21 03:26:51;;;;;;;;;;;;;;;6.03;77.28;93213.75;5045912;28;19919;-38
2023/03/21 03:29:16;;;;;;;;;;;;;;;6.05;77.30;93221.44;5046279;28;20360;-38
2023/03/21 03:31:43;;;;;;;;;;;;;;;6.01;76.63;93223.75;5030609;28;19913;-38
2023/03/21 03:34:09;;;;;;;;;;;;;;;5.82;77.21;93214.84;5042082;28;20312;-38
2023/03/21 03:36:38;;;;;;;;;;;;;;;5.88;77.15;93216.25;5050713;28;19913;-38
2023/03/21 03:39:04;;;;;;;;;;;;;;;5.86;77.21;93218.78;5050152;28;20415;-38
2023/03/21 03:41:30;;;;;;;;;;;;;;;5.95;77.21;93223.13;5053194;28;19921;-38
2023/03/21 03:43:56;;;;;;;;;;;;;;;5.89;76.63;93217.72;5045736;28;19923;-38
2023/03/21 03:46:22;;;;;;;;;;;;;;;5.81;77.02;93216.09;5045688;28;19921;-38
2023/03/21 03:48:48;;;;;;;;;;;;;;;5.86;77.64;93223.50;5030100;28;19971;-38
2023/03/21 03:51:15;;;;;;;;;;;;;;;5.84;77.32;93206.88;5045549;28;20389;-38
2023/03/21 03:53:41;;;;;;;;;;;;;;;5.77;78.04;93207.44;5045814;28;19936;-38
2023/03/21 03:56:08;;;;;;;;;;;;;;;5.73;78.15;93207.75;5045726;28;20387;-38
2023/03/21 03:58:34;;;;;;;;;;;;;;;5.69;77.53;93210.06;5045619;28;19913;-38
2023/03/21 04:00:59;;;;;;;;;;;;;;;5.79;75.98;93213.88;5045099;28;20474;-38
2023/03/21 04:03:24;;;;;;;;;;;;;;;5.85;75.87;93216.53;5030079;28;19917;-38
2023/03/21 04:05:50;;;;;;;;;;;;;;;5.70;76.42;93211.53;5029997;28;19960;-38
2023/03/21 04:08:15;;;;;;;;;;;;;;;5.59;77.60;93224.69;5030132;28;19924;-38
2023/03/21 04:10:41;;;;;;;;;;;;;;;5.39;78.10;93221.22;5030151;28;20325;-38
2023/03/21 04:13:06;;;;;;;;;;;;;;;5.53;77.74;93222.03;5029685;28;20230;-38
2023/03/21 04:15:31;;;;;;;;;;;;;;;5.37;77.75;93223.75;5030098;28;19917;-38
2023/03/21 04:17:57;;;;;;;;;;;;;;;5.13;78.83;93223.84;5029628;28;20020;-38
2023/03/21 04:20:22;;;;;;;;;;;;;;;5.11;79.29;93220.16;5029738;28;19920;-38
2023/03/21 04:22:48;;;;;;;;;;;;;;;5.11;79.32;93225.66;5029954;28;19921;-38
2023/03/21 04:25:13;;;;;;;;;;;;;;;4.96;79.67;93228.09;5029525;28;20381;-38
2023/03/21 04:27:38;;;;;;;;;;;;;;;5.06;79.38;93229.19;5029471;28;19920;-38
2023/03/21 04:30:04;;;;;;;;;;;;;;;4.88;80.22;93221.72;5029908;28;19925;-38
2023/03/21 04:32:32;;;;;;;;;;;;;;;4.84;80.07;93227.50;5029530;28;20003;-38
2023/03/21 04:34:58;;;;;;;;;;;;;;;4.89;79.88;93228.69;5047617;28;20466;-38
2023/03/21 04:37:23;;;;;;;;;;;;;;;4.99;78.58;93230.53;5039850;28;19955;-38
2023/03/21 04:39:49;;;;;;;;;;;;;;;4.87;79.38;93218.25;5029555;28;19971;-38
2023/03/21 04:42:14;;;;;;;;;;;;;;;5.01;79.19;93224.53;5029806;28;20396;-38
2023/03/21 04:44:40;;;;;;;;;;;;;;;4.93;78.87;93229.13;5029693;28;20397;-38
2023/03/21 04:47:05;;;;;;;;;;;;;;;5.13;78.71;93232.06;5029175;28;20417;-38
2023/03/21 04:49:30;;;;;;;;;;;;;;;5.12;78.21;93221.63;5029318;28;19913;-38
2023/03/21 04:51:56;;;;;;;;;;;;;;;5.40;77.29;93224.72;5029162;28;20029;-38
2023/03/21 04:54:21;;;;;;;;;;;;;;;5.45;76.88;93236.84;5029488;28;19948;-38
2023/03/21 04:56:46;;;;;;;;;;;;;;;5.49;76.26;93220.84;5048414;28;19932;-38
2023/03/21 04:59:12;;;;;;;;;;;;;;;5.40;77.33;93230.19;5049244;28;19917;-38
2023/03/21 05:01:40;;;;;;;;;;;;;;;5.48;77.38;93219.38;5048928;28;19925;-38
2023/03/21 05:04:05;;;;;;;;;;;;;;;5.65;76.82;93220.56;5049370;28;19916;-38
2023/03/21 05:06:30;;;;;;;;;;;;;;;5.78;75.42;93222.63;5049387;28;20347;-38
2023/03/21 05:09:00;;;;;;;;;;;;;;;5.43;77.56;93220.94;5049122;28;20007;-38
2023/03/21 05:11:31;;;;;;;;;;;;;;;5.70;76.53;93230.72;5048928;28;19920;-38
2023/03/21 05:13:57;;;;;;;;;;;;;;;5.54;76.99;93226.25;5049068;28;19970;-38
2023/03/21 05:16:25;;;;;;;;;;;;;;;5.47;77.64;93215.16;5048872;28;19913;-38
2023/03/21 05:18:52;;;;;;;;;;;;;;;5.45;77.04;93218.41;5049070;28;19921;-38
2023/03/21 05:21:18;;;;;;;;;;;;;;;5.55;77.22;93218.75;5048940;28;19924;-38
2023/03/21 05:23:43;;;;;;;;;;;;;;;5.71;77.97;93217.75;5042824;28;19913;-38
2023/03/21 05:26:09;;;;;;;;;;;;;;;5.90;76.48;93229.41;5028833;28;19913;-38
2023/03/21 05:28:35;;;;;;;;;;;;;;;6.10;76.59;93234.31;5029008;28;19916;-38
2023/03/21 05:31:03;;;;;;;;;;;;;;;6.36;74.93;93228.13;5028762;28;19966;-38
2023/03/21 05:33:29;;;;;;;;;;;;;;;6.22;74.43;93232.09;5034512;28;20419;-38
2023/03/21 05:35:54;;;;;;;;;;;;;;;6.43;73.71;93228.22;5048807;28;19917;-38
2023/03/21 05:38:19;;;;;;;;;;;;;;;6.55;73.54;93232.22;5048951;28;19917;-38
2023/03/21 05:40:46;;;;;;;;;;;;;;;6.64;72.49;93231.06;5048724;28;19913;-38
2023/03/21 05:43:11;;;;;;;;;;;;;;;6.74;72.37;93235.59;5048844;28;19916;-38
2023/03/21 05:45:36;;;;;;;;;;;;;;;6.74;73.35;93235.59;5048585;28;19948;-38
2023/03/21 05:48:02;;;;;;;;;;;;;;;6.93;72.13;93235.47;5049675;28;20015;-38
2023/03/21 05:50:28;;;;;;;;;;;;;;;7.01;72.23;93239.06;5052155;28;20392;-38
2023/03/21 05:52:53;;;;;;;;;;;;;;;7.13;72.54;93232.06;5037788;28;19999;-38
2023/03/21 05:55:18;;;;;;;;;;;;;;;7.29;71.72;93227.47;5039270;28;19963;-38
2023/03/21 05:57:44;;;;;;;;;;;;;;;7.39;71.51;93229.22;5052377;28;19913;-38
2023/03/21 06:00:10;;;;;;;;;;;;;;;7.32;71.09;93224.38;5052084;28;19921;-38
2023/03/21 06:02:36;;;;;;;;;;;;;;;7.43;71.32;93223.41;5052152;28;19952;-38
2023/03/21 06:05:02;;;;;;;;;;;;;;;7.55;70.76;93217.13;5051860;28;19952;-38
2023/03/21 06:07:27;;;;;;;;;;;;;;;7.79;69.30;93212.59;5052008;28;19917;-38
2023/03/21 06:09:52;;;;;;;;;;;;;;;8.08;68.69;93206.59;5052339;28;19931;-38
2023/03/21 06:12:17;;;;;;;;;;;;;;;8.18;69.45;93204.09;5051843;28;19990;-38
2023/03/21 06:14:43;;;;;;;;;;;;;;;8.33;68.90;93201.50;5051943;28;19923;-38
2023/03/21 06:17:08;;;;;;;;;;;;;;;8.62;68.06;93200.19;5051766;28;20689;-38
2023/03/21 06:19:33;;;;;;;;;;;;;;;8.67;67.67;93193.06;5052059;28;19913;-38
2023/03/21 06:21:59;;;;;;;;;;;;;;;8.80;68.08;93199.19;5051702;28;19913;-38
2023/03/21 06:24:25;;;;;;;;;;;;;;;9.40;64.48;93195.22;5040001;28;19974;-38
2023/03/21 06:26:50;;;;;;;;;;;;;;;9.67;64.29;93196.34;5031800;28;19921;-38
2023/03/21 06:29:15;;;;;;;;;;;;;;;10.13;63.72;93191.66;5031887;28;19920;-38
2023/03/21 06:31:41;;;;;;;;;;;;;;;10.23;62.38;93189.78;5031319;28;19975;-38
2023/03/21 06:34:06;;;;;;;;;;;;;;;10.72;61.70;93189.38;5042594;28;19916;-38
2023/03/21 06:36:31;;;;;;;;;;;;;;;10.78;61.31;93187.16;5051370;28;19913;-38
2023/03/21 06:38:57;;;;;;;;;;;;;;;11.13;61.18;93188.88;5051512;28;19919;-38
2023/03/21 06:41:22;;;;;;;;;;;;;;;10.90;60.39;93188.94;5051430;28;19912;-38
2023/03/21 06:43:47;;;;;;;;;;;;;;;11.18;61.34;93185.91;5051190;28;20003;-38
2023/03/21 06:46:12;;;;;;;;;;;;;;;10.86;60.91;93188.59;5051303;28;20012;-38
2023/03/21 06:48:43;;;;;;;;;;;;;;;10.60;62.90;93189.75;5051492;28;19913;-38
2023/03/21 06:51:08;;;;;;;;;;;;;;;11.04;63.09;93181.91;5050858;28;19923;-38
2023/03/21 06:53:33;;;;;;;;;;;;;;;11.38;63.44;93192.44;5031472;28;19913;-38
2023/03/21 06:55:59;;;;;;;;;;;;;;;11.59;63.28;93179.06;5043639;28;20424;-38
2023/03/21 06:58:24;;;;;;;;;;;;;;;11.83;62.42;93191.47;5051316;28;19913;-39
2023/03/21 07:00:49;;;;;;;;;;;;;;;12.05;61.63;93187.81;5049871;28;20432;-38
2023/03/21 07:03:15;;;;;;;;;;;;;;;12.13;61.52;93188.50;5051290;28;19920;-38
2023/03/21 07:05:41;;;;;;;;;;;;;;;12.24;60.72;93199.09;5051199;28;19917;-38
2023/03/21 07:08:09;;;;;;;;;;;;;;;12.50;60.35;93200.56;5050823;28;20424;-38
2023/03/21 07:10:37;;;;;;;;;;;;;;;12.00;59.20;93208.88;5050987;28;20004;-38
2023/03/21 07:13:02;;;;;;;;;;;;;;;12.10;59.33;93209.00;5050602;28;19923;-39
2023/03/21 07:15:27;;;;;;;;;;;;;;;12.37;58.95;93214.69;5050405;28;19921;-38
2023/03/21 07:17:53;;;;;;;;;;;;;;;12.79;58.35;93207.13;5050888;28;19921;-38
2023/03/21 07:20:18;;;;;;;;;;;;;;;12.96;58.00;93221.00;5050440;28;20311;-38
2023/03/21 07:22:43;;;;;;;;;;;;;;;12.84;57.22;93206.16;5050566;28;19938;-38
2023/03/21 07:25:09;;;;;;;;;;;;;;;12.55;53.45;93208.63;5032219;28;19924;-39
2023/03/21 07:27:35;;;;;;;;;;;;;;;12.68;52.64;93211.09;5030357;28;19921;-39
2023/03/21 07:30:00;;;;;;;;;;;;;;;12.61;53.48;93202.84;5030579;28;19913;-38
2023/03/21 07:32:28;;;;;;;;;;;;;;;12.86;52.78;93201.50;5030330;28;19944;-39
2023/03/21 07:34:54;;;;;;;;;;;;;;;13.02;51.69;93210.38;5047789;28;19917;-38
2023/03/21 07:37:20;;;;;;;;;;;;;;;13.25;50.36;93208.16;5050182;28;19967;-39
2023/03/21 07:39:45;;;;;;;;;;;;;;;13.48;49.84;93205.09;5050313;28;19913;-38
2023/03/21 07:42:10;;;;;;;;;;;;;;;13.81;49.62;93202.81;5049962;28;19923;-38
2023/03/21 07:44:36;;;;;;;;;;;;;;;14.12;46.53;93198.31;5049871;28;19964;-39
2023/03/21 07:47:01;;;;;;;;;;;;;;;14.55;45.25;93199.50;5050080;28;19917;-39
2023/03/21 07:49:26;;;;;;;;;;;;;;;15.31;45.49;93205.16;5049952;28;20508;-39
2023/03/21 07:51:52;;;;;;;;;;;;;;;15.43;44.68;93210.88;5043893;28;19916;-39
2023/03/21 07:54:19;;;;;;;;;;;;;;;16.16;43.81;93205.63;5029776;28;20631;-38
2023/03/21 07:56:45;;;;;;;;;;;;;;;16.31;40.09;93202.50;5048936;28;19912;-38
2023/03/21 07:59:10;;;;;;;;;;;;;;;16.19;40.92;93196.09;5049532;28;19923;-38
2023/03/21 08:01:36;;;;;;;;;;;;;;;16.63;39.89;93201.97;5049500;28;19989;-38
2023/03/21 08:04:01;;;;;;;;;;;;;;;16.57;39.39;93199.47;5049944;28;19916;-38
2023/03/21 08:06:31;;;;;;;;;;;;;;;16.89;38.91;93203.00;5064042;28;21607;-38
2023/03/21 08:08:56;;;;;;;;;;;;;;;17.02;40.09;93205.25;5049357;28;19916;-38
2023/03/21 08:11:22;;;;;;;;;;;;;;;17.70;40.04;93201.38;5049168;28;20011;-39
2023/03/21 08:13:48;;;;;;;;;;;;;;;17.92;37.96;93199.25;5049781;28;19939;-38
2023/03/21 08:16:13;;;;;;;;;;;;;;;18.12;38.52;93195.66;5049289;28;20007;-38
2023/03/21 08:18:39;;;;;;;;;;;;;;;18.56;38.07;93205.34;5049474;28;19913;-38
2023/03/21 08:21:04;;;;;;;;;;;;;;;19.53;35.76;93204.13;5049060;28;19948;-39
2023/03/21 08:23:29;;;;;;;;;;;;;;;19.96;35.39;93203.72;5044796;28;19913;-38
2023/03/21 08:25:55;;;;;;;;;;;;;;;19.83;36.29;93198.78;5029449;28;19913;-39
2023/03/21 08:28:21;;;;;;;;;;;;;;;19.81;35.04;93196.59;5029426;28;19917;-38
2023/03/21 08:30:46;;;;;;;;;;;;;;;20.07;33.68;93191.72;5028680;28;19951;-38
2023/03/21 08:33:12;;;;;;;;;;;;;;;19.92;33.96;93190.22;5032770;28;19917;-38
2023/03/21 08:35:37;;;;;;;;;;;;;;;19.87;35.06;93191.31;5048877;28;20464;-38
2023/03/21 08:38:03;;;;;;;;;;;;;;;19.91;34.46;93185.22;5064708;28;19913;-38
2023/03/21 08:40:28;;;;;;;;;;;;;;;19.53;35.21;93192.91;5049149;28;19921;-39
2023/03/21 08:42:53;;;;;;;;;;;;;;;19.66;35.61;93183.84;5049144;28;19978;-38
2023/03/21 08:45:19;;;;;;;;;;;;;;;19.60;34.50;93188.38;5049107;28;19913;-38
2023/03/21 08:47:44;;;;;;;;;;;;;;;20.19;34.98;93189.56;5049127;28;20381;-38
2023/03/21 08:50:10;;;;;;;;;;;;;;;20.15;33.97;93184.47;5048902;28;20006;-38
2023/03/21 08:52:36;;;;;;;;;;;;;;;20.34;34.60;93186.19;5052048;28;20004;-38
2023/03/21 08:55:02;;;;;;;;;;;;;;;20.94;32.88;93192.19;5033650;28;20039;-38
2023/03/21 08:57:28;;;;;;;;;;;;;;;21.30;32.04;93193.38;5048762;28;19917;-39
2023/03/21 08:59:53;;;;;;;;;;;;;;;21.64;30.34;93194.34;5048750;28;19921;-39
2023/03/21 09:02:18;;;;;;;;;;;;;;;22.13;29.92;93189.00;5048683;28;19916;-39
2023/03/21 09:04:43;;;;;;;;;;;;;;;21.99;31.68;93188.31;5048704;28;19913;-39
2023/03/21 09:07:11;;;;;;;;;;;;;;;21.45;31.89;93189.91;5048512;28;19964;-39
2023/03/21 09:09:37;;;;;;;;;;;;;;;20.73;32.11;93188.97;5048648;28;19919;-38
2023/03/21 09:12:02;;;;;;;;;;;;;;;20.38;30.97;93187.16;5048781;28;19924;-39
2023/03/21 09:14:27;;;;;;;;;;;;;;;19.56;33.02;93177.69;5048558;28;20553;-39
2023/03/21 09:16:53;;;;;;;;;;;;;;;19.13;33.41;93170.97;5048458;28;19964;-38
2023/03/21 09:19:18;;;;;;;;;;;;;;;19.19;34.68;93173.41;5048611;28;19948;-38
2023/03/21 09:21:44;;;;;;;;;;;;;;;18.60;34.59;93167.16;5044700;28;19999;-38
2023/03/21 09:24:11;;;;;;;;;;;;;;;18.39;34.36;93169.31;5031551;28;19924;-39
2023/03/21 09:26:37;;;;;;;;;;;;;;;18.08;34.69;93163.94;5032457;28;20016;-38
2023/03/21 09:29:03;;;;;;;;;;;;;;;17.96;36.38;93163.91;5032746;28;20008;-38
2023/03/21 09:31:29;;;;;;;;;;;;;;;17.68;36.81;93167.72;5032427;28;19994;-38
2023/03/21 09:33:56;;;;;;;;;;;;;;;17.50;36.66;93163.03;5041631;28;20420;-38
2023/03/21 09:36:23;;;;;;;;;;;;;;;17.33;36.74;93164.78;5052502;28;20349;-38
2023/03/21 09:38:49;;;;;;;;;;;;;;;17.33;38.11;93166.84;5052233;28;19916;-38
2023/03/21 09:41:15;;;;;;;;;;;;;;;17.16;39.48;93158.75;5052076;28;20000;-38
2023/03/21 09:43:45;;;;;;;;;;;;;;;16.91;40.59;93164.09;5052394;28;20003;-38
2023/03/21 09:46:17;;;;;;;;;;;;;;;16.67;40.31;93158.34;5052040;28;19913;-38
2023/03/21 09:49:03;;;;;;;;;;;;;;;17.00;39.76;93157.72;5052163;28;19920;-38
2023/03/21 09:51:30;;;;;;;;;;;;;;;16.86;41.03;93153.97;5064516;28;19923;-38
2023/03/21 09:53:56;;;;;;;;;;;;;;;16.95;39.50;93148.34;5047420;28;19913;-38
2023/03/21 09:56:23;;;;;;;;;;;;;;;16.92;39.86;93137.63;5032250;28;20467;-38
2023/03/21 09:58:53;;;;;;;;;;;;;;;16.58;39.04;93142.41;5047586;28;19921;-38
2023/03/21 10:01:26;;;;;;;;;;;;;;;16.86;39.84;93149.13;5031759;28;19928;-38
2023/03/21 10:03:53;;;;;;;;;;;;;;;17.17;39.90;93143.50;5032063;28;19924;-38
2023/03/21 10:06:18;;;;;;;;;;;;;;;17.28;39.10;93146.31;5031910;28;19917;-38
2023/03/21 10:08:47;;;;;;;;;;;;;;;17.31;38.90;93145.13;5047427;28;20078;-38
2023/03/21 10:11:12;;;;;;;;;;;;;;;17.66;38.20;93142.47;5031750;28;20452;-38
2023/03/21 10:13:52;;;;;;;;;;;;;;;17.80;38.10;93132.19;5032028;28;19921;-38
2023/03/21 10:16:41;;;;;;;;;;;;;;;17.41;39.18;93117.84;5031615;28;20691;-38
2023/03/21 10:19:10;;;;;;;;;;;;;;;17.31;39.24;93117.22;5028449;28;19917;-38
2023/03/21 10:21:36;;;;;;;;;;;;;;;17.50;40.10;93121.16;5047239;28;20050;-38
2023/03/21 10:24:01;;;;;;;;;;;;;;;17.73;39.06;93110.09;5031696;28;19913;-38
2023/03/21 10:26:27;;;;;;;;;;;;;;;18.39;36.77;93116.19;5046762;28;20679;-38
2023/03/21 10:28:53;;;;;;;;;;;;;;;18.88;33.68;93110.09;5047054;28;19917;-38
2023/03/21 10:31:20;;;;;;;;;;;;;;;19.00;36.31;93114.91;5031246;28;19917;-39
2023/03/21 10:33:46;;;;;;;;;;;;;;;18.72;37.55;93105.63;5054882;28;19966;-38
2023/03/21 10:36:16;;;;;;;;;;;;;;;18.59;38.31;93103.47;5051067;28;19945;-38
2023/03/21 10:38:45;;;;;;;;;;;;;;;18.51;35.87;93089.00;5051369;28;19913;-38
2023/03/21 10:41:10;;;;;;;;;;;;;;;18.31;38.43;93087.78;5066763;28;20577;-39
2023/03/21 10:43:36;;;;;;;;;;;;;;;18.58;37.67;93088.75;5050994;28;19967;-38
2023/03/21 10:46:10;;;;;;;;;;;;;;;18.56;37.14;93091.41;5051181;28;20001;-38
2023/03/21 10:48:37;;;;;;;;;;;;;;;19.01;36.92;93085.63;5050696;28;19912;-38
2023/03/21 10:51:02;;;;;;;;;;;;;;;19.84;34.04;93086.09;5050805;28;19982;-39
2023/03/21 10:53:50;;;;;;;;;;;;;;;21.02;32.78;93077.53;5066176;28;19917;-39
2023/03/21 10:56:16;;;;;;;;;;;;;;;21.64;30.87;93071.44;5032523;28;20030;-39
2023/03/21 10:58:45;;;;;;;;;;;;;;;21.91;31.13;93065.00;5030680;28;20427;-39
2023/03/21 11:01:14;;;;;;;;;;;;;;;22.65;30.52;93064.09;5045864;28;19924;-39
2023/03/21 11:03:45;;;;;;;;;;;;;;;23.73;28.66;93073.53;5045794;28;19913;-39
2023/03/21 11:06:26;;;;;;;;;;;;;;;23.16;28.71;93068.41;5045579;28;19996;-39
2023/03/21 11:08:56;;;;;;;;;;;;;;;23.26;28.66;93073.72;5030886;28;19944;-39
2023/03/21 11:11:32;;;;;;;;;;;;;;;23.19;25.56;93072.03;5031059;28;19963;-39
2023/03/21 11:13:58;;;;;;;;;;;;;;;23.31;26.70;93058.44;5030809;28;19968;-39
2023/03/21 11:16:31;;;;;;;;;;;;;;;23.01;27.77;93065.63;5030888;28;19917;-39
2023/03/21 11:19:01;;;;;;;;;;;;;;;21.98;28.18;93066.72;5029098;28;20023;-39
2023/03/21 11:21:27;;;;;;;;;;;;;;;21.62;30.34;93062.19;5045943;28;19940;-38
2023/03/21 11:23:53;;;;;;;;;;;;;;;21.47;30.10;93057.25;5030652;28;19913;-38
2023/03/21 11:26:22;;;;;;;;;;;;;;;21.68;30.71;93060.38;5045837;28;19928;-39
2023/03/21 11:28:48;;;;;;;;;;;;;;;21.67;29.84;93053.31;5010803;28;20380;-38
2023/03/21 11:31:13;;;;;;;;;;;;;;;20.82;30.72;93062.50;5046610;28;19917;-38
2023/03/21 11:33:40;;;;;;;;;;;;;;;20.90;32.16;93060.09;5052978;28;19939;-39
2023/03/21 11:36:10;;;;;;;;;;;;;;;21.10;30.75;93052.69;5065822;28;19980;-38
2023/03/21 11:38:36;;;;;;;;;;;;;;;21.03;32.49;93056.56;5065262;28;19967;-38
2023/03/21 11:41:02;;;;;;;;;;;;;;;20.81;31.70;93063.13;5050094;28;19913;-39
2023/03/21 11:43:30;;;;;;;;;;;;;;;20.76;32.57;93055.88;5049766;28;20380;-39
2023/03/21 11:46:00;;;;;;;;;;;;;;;19.94;34.90;93050.22;5049344;28;20020;-39
2023/03/21 11:48:25;;;;;;;;;;;;;;;19.16;35.69;93043.09;5064899;28;19913;-38
2023/03/21 11:50:55;;;;;;;;;;;;;;;18.42;38.41;93048.63;5049928;28;19934;-38
2023/03/21 11:53:34;;;;;;;;;;;;;;;18.07;38.54;93051.47;5046894;28;19983;-38
2023/03/21 11:56:00;;;;;;;;;;;;;;;17.48;40.18;93045.69;5029934;28;19921;-38
2023/03/21 11:58:25;;;;;;;;;;;;;;;17.54;39.42;93046.09;5029930;28;19913;-38
2023/03/21 12:00:54;;;;;;;;;;;;;;;17.56;40.74;93040.63;5029486;28;20372;-38
2023/03/21 12:03:23;;;;;;;;;;;;;;;17.31;40.51;93039.09;5044997;28;19917;-38
2023/03/21 12:05:53;;;;;;;;;;;;;;;17.28;41.08;93037.50;5029784;28;19913;-38
2023/03/21 12:08:21;;;;;;;;;;;;;;;17.28;42.09;93042.38;5029729;28;19913;-38
2023/03/21 12:10:46;;;;;;;;;;;;;;;17.06;42.03;93040.97;5029772;28;19917;-38
2023/03/21 12:13:12;;;;;;;;;;;;;;;17.33;40.79;93030.09;5029557;28;19917;-38
2023/03/21 12:15:40;;;;;;;;;;;;;;;17.08;41.54;93033.44;5029234;28;19987;-38
2023/03/21 12:18:08;;;;;;;;;;;;;;;17.26;40.80;93028.28;5029281;28;19913;-38
2023/03/21 12:20:43;;;;;;;;;;;;;;;17.54;40.21;93024.50;5044667;28;20468;-38
2023/03/21 12:23:14;;;;;;;;;;;;;;;17.39;41.07;93027.69;5029083;28;20000;-38
2023/03/21 12:25:45;;;;;;;;;;;;;;;17.17;43.02;93026.31;5029294;28;19917;-38
2023/03/21 12:28:18;;;;;;;;;;;;;;;17.10;42.30;93021.69;5029342;28;19921;-38
2023/03/21 12:30:47;;;;;;;;;;;;;;;17.40;41.76;93024.31;5044154;28;19914;-38
2023/03/21 12:33:32;;;;;;;;;;;;;;;17.42;42.06;93023.69;5047762;28;20367;-38
2023/03/21 12:36:20;;;;;;;;;;;;;;;17.61;41.89;93020.72;5048842;28;19917;-38
2023/03/21 12:38:55;;;;;;;;;;;;;;;17.37;41.12;93008.75;5064361;28;19913;-38
2023/03/21 12:41:26;;;;;;;;;;;;;;;17.18;41.45;93014.53;5064379;28;19962;-38
2023/03/21 12:43:59;;;;;;;;;;;;;;;17.07;41.58;93025.66;5048844;28;20409;-38
2023/03/21 12:46:35;;;;;;;;;;;;;;;17.05;42.11;93017.16;5048999;28;20389;-38
2023/03/21 12:49:01;;;;;;;;;;;;;;;16.90;42.56;93017.59;5064060;28;19912;-38
2023/03/21 12:51:32;;;;;;;;;;;;;;;16.70;41.97;93016.31;5061624;28;20064;-38
2023/03/21 12:54:01;;;;;;;;;;;;;;;16.74;42.29;93022.16;5044638;28;20004;-38